sensor_id;sensor_type;location;lat;lon;timestamp;P1;durP1;ratioP1;P2;durP2;ratioP2
71351;SDS011;59159;51.652;4.864;2022-11-18T00:00:27;4.00;;;1.38;;
71351;SDS011;59159;51.652;4.864;2022-11-18T00:02:53;3.87;;;0.90;;
71351;SDS011;59159;51.652;4.864;2022-11-18T00:05:19;3.85;;;0.93;;
71351;SDS011;59159;51.652;4.864;2022-11-18T00:07:45;4.47;;;1.00;;
71351;SDS011;59159;51.652;4.864;2022-11-18T00:10:11;5.20;;;1.20;;
71351;SDS011;59159;51.652;4.864;2022-11-18T00:12:37;3.93;;;1.00;;
71351;SDS011;59159;51.652;4.864;2022-11-18T00:15:22;5.82;;;1.15;;
71351;SDS011;59159;51.652;4.864;2022-11-18T00:17:48;3.90;;;1.05;;
71351;SDS011;59159;51.652;4.864;2022-11-18T00:20:14;2.87;;;0.77;;
71351;SDS011;59159;51.652;4.864;2022-11-18T00:22:40;4.00;;;1.08;;
71351;SDS011;59159;51.652;4.864;2022-11-18T00:25:06;3.83;;;1.10;;
71351;SDS011;59159;51.652;4.864;2022-11-18T00:27:32;3.43;;;1.00;;
71351;SDS011;59159;51.652;4.864;2022-11-18T00:29:58;5.55;;;1.10;;
71351;SDS011;59159;51.652;4.864;2022-11-18T00:32:24;3.53;;;0.90;;
71351;SDS011;59159;51.652;4.864;2022-11-18T00:34:50;3.95;;;0.90;;
71351;SDS011;59159;51.652;4.864;2022-11-18T00:37:16;4.07;;;1.03;;
71351;SDS011;59159;51.652;4.864;2022-11-18T00:39:42;4.45;;;1.10;;
71351;SDS011;59159;51.652;4.864;2022-11-18T00:42:08;3.90;;;1.02;;
71351;SDS011;59159;51.652;4.864;2022-11-18T00:44:52;3.87;;;0.80;;
71351;SDS011;59159;51.652;4.864;2022-11-18T00:47:18;2.95;;;0.80;;
71351;SDS011;59159;51.652;4.864;2022-11-18T00:49:44;4.95;;;1.10;;
71351;SDS011;59159;51.652;4.864;2022-11-18T00:52:10;3.87;;;1.17;;
71351;SDS011;59159;51.652;4.864;2022-11-18T00:54:36;5.07;;;1.15;;
71351;SDS011;59159;51.652;4.864;2022-11-18T00:57:02;3.67;;;1.10;;
71351;SDS011;59159;51.652;4.864;2022-11-18T00:59:29;4.60;;;1.10;;
71351;SDS011;59159;51.652;4.864;2022-11-18T01:01:55;3.70;;;0.90;;
71351;SDS011;59159;51.652;4.864;2022-11-18T01:04:21;3.92;;;1.15;;
71351;SDS011;59159;51.652;4.864;2022-11-18T01:06:47;4.22;;;0.93;;
71351;SDS011;59159;51.652;4.864;2022-11-18T01:09:13;3.30;;;0.90;;
71351;SDS011;59159;51.652;4.864;2022-11-18T01:11:39;3.80;;;0.90;;
71351;SDS011;59159;51.652;4.864;2022-11-18T01:14:24;5.22;;;1.35;;
71351;SDS011;59159;51.652;4.864;2022-11-18T01:16:52;4.47;;;1.30;;
71351;SDS011;59159;51.652;4.864;2022-11-18T01:19:18;5.20;;;1.20;;
71351;SDS011;59159;51.652;4.864;2022-11-18T01:21:44;3.85;;;0.90;;
71351;SDS011;59159;51.652;4.864;2022-11-18T01:24:10;3.28;;;0.90;;
71351;SDS011;59159;51.652;4.864;2022-11-18T01:26:37;4.50;;;1.10;;
71351;SDS011;59159;51.652;4.864;2022-11-18T01:29:03;4.35;;;1.23;;
71351;SDS011;59159;51.652;4.864;2022-11-18T01:31:28;3.50;;;1.00;;
71351;SDS011;59159;51.652;4.864;2022-11-18T01:33:55;4.27;;;1.00;;
71351;SDS011;59159;51.652;4.864;2022-11-18T01:36:22;4.03;;;1.40;;
71351;SDS011;59159;51.652;4.864;2022-11-18T01:38:49;4.10;;;1.30;;
71351;SDS011;59159;51.652;4.864;2022-11-18T01:41:15;3.60;;;1.00;;
71351;SDS011;59159;51.652;4.864;2022-11-18T01:43:54;4.57;;;1.10;;
71351;SDS011;59159;51.652;4.864;2022-11-18T01:46:21;5.15;;;1.27;;
71351;SDS011;59159;51.652;4.864;2022-11-18T01:48:49;3.63;;;1.10;;
71351;SDS011;59159;51.652;4.864;2022-11-18T01:51:17;4.57;;;1.13;;
71351;SDS011;59159;51.652;4.864;2022-11-18T01:53:45;4.35;;;1.15;;
71351;SDS011;59159;51.652;4.864;2022-11-18T01:56:13;5.93;;;1.20;;
71351;SDS011;59159;51.652;4.864;2022-11-18T01:58:51;3.33;;;0.90;;
71351;SDS011;59159;51.652;4.864;2022-11-18T02:01:18;4.13;;;0.93;;
71351;SDS011;59159;51.652;4.864;2022-11-18T02:03:44;6.05;;;1.35;;
71351;SDS011;59159;51.652;4.864;2022-11-18T02:06:11;3.87;;;1.10;;
71351;SDS011;59159;51.652;4.864;2022-11-18T02:08:38;4.00;;;1.00;;
71351;SDS011;59159;51.652;4.864;2022-11-18T02:11:04;3.90;;;1.00;;
71351;SDS011;59159;51.652;4.864;2022-11-18T02:13:30;3.83;;;1.20;;
71351;SDS011;59159;51.652;4.864;2022-11-18T02:20:54;5.10;;;1.55;;
71351;SDS011;59159;51.652;4.864;2022-11-18T02:23:29;4.30;;;1.00;;
71351;SDS011;59159;51.652;4.864;2022-11-18T02:33:24;4.72;;;1.10;;
71351;SDS011;59159;51.652;4.864;2022-11-18T02:36:01;3.60;;;1.00;;
71351;SDS011;59159;51.652;4.864;2022-11-18T02:38:31;4.15;;;1.10;;
71351;SDS011;59159;51.652;4.864;2022-11-18T02:41:01;3.87;;;1.00;;
71351;SDS011;59159;51.652;4.864;2022-11-18T02:43:30;3.50;;;1.02;;
71351;SDS011;59159;51.652;4.864;2022-11-18T02:45:59;4.35;;;1.05;;
71351;SDS011;59159;51.652;4.864;2022-11-18T02:48:27;3.73;;;1.10;;
71351;SDS011;59159;51.652;4.864;2022-11-18T02:50:55;4.07;;;1.05;;
71351;SDS011;59159;51.652;4.864;2022-11-18T02:53:22;3.40;;;0.80;;
71351;SDS011;59159;51.652;4.864;2022-11-18T02:55:49;3.83;;;1.20;;
71351;SDS011;59159;51.652;4.864;2022-11-18T02:58:16;4.38;;;1.35;;
71351;SDS011;59159;51.652;4.864;2022-11-18T03:00:43;4.65;;;1.02;;
71351;SDS011;59159;51.652;4.864;2022-11-18T03:03:42;4.78;;;1.08;;
71351;SDS011;59159;51.652;4.864;2022-11-18T03:06:04;3.63;;;1.03;;
71351;SDS011;59159;51.652;4.864;2022-11-18T03:08:36;4.78;;;0.90;;
71351;SDS011;59159;51.652;4.864;2022-11-18T03:11:10;3.80;;;0.85;;
71351;SDS011;59159;51.652;4.864;2022-11-18T03:16:28;4.93;;;1.13;;
71351;SDS011;59159;51.652;4.864;2022-11-18T03:24:33;3.78;;;0.82;;
71351;SDS011;59159;51.652;4.864;2022-11-18T03:27:05;4.63;;;0.88;;
71351;SDS011;59159;51.652;4.864;2022-11-18T03:29:33;4.53;;;1.40;;
71351;SDS011;59159;51.652;4.864;2022-11-18T03:32:02;3.47;;;0.90;;
71351;SDS011;59159;51.652;4.864;2022-11-18T03:34:43;3.78;;;0.98;;
71351;SDS011;59159;51.652;4.864;2022-11-18T03:37:10;3.35;;;1.02;;
71351;SDS011;59159;51.652;4.864;2022-11-18T03:39:38;3.67;;;1.00;;
71351;SDS011;59159;51.652;4.864;2022-11-18T03:42:07;3.40;;;1.00;;
71351;SDS011;59159;51.652;4.864;2022-11-18T03:44:35;3.55;;;1.00;;
71351;SDS011;59159;51.652;4.864;2022-11-18T03:47:06;3.37;;;1.10;;
71351;SDS011;59159;51.652;4.864;2022-11-18T03:49:36;4.07;;;1.00;;
71351;SDS011;59159;51.652;4.864;2022-11-18T03:52:06;3.25;;;0.93;;
71351;SDS011;59159;51.652;4.864;2022-11-18T03:54:36;3.90;;;1.08;;
71351;SDS011;59159;51.652;4.864;2022-11-18T03:57:18;4.07;;;0.90;;
71351;SDS011;59159;51.652;4.864;2022-11-18T04:04:37;3.27;;;0.80;;
71351;SDS011;59159;51.652;4.864;2022-11-18T04:09:31;2.65;;;0.80;;
71351;SDS011;59159;51.652;4.864;2022-11-18T04:12:04;4.73;;;0.80;;
71351;SDS011;59159;51.652;4.864;2022-11-18T04:14:42;3.30;;;0.77;;
71351;SDS011;59159;51.652;4.864;2022-11-18T04:17:15;4.45;;;1.02;;
71351;SDS011;59159;51.652;4.864;2022-11-18T04:19:41;4.43;;;1.60;;
71351;SDS011;59159;51.652;4.864;2022-11-18T04:22:08;5.00;;;0.90;;
71351;SDS011;59159;51.652;4.864;2022-11-18T04:24:34;4.15;;;1.15;;
71351;SDS011;59159;51.652;4.864;2022-11-18T04:27:00;5.15;;;1.38;;
71351;SDS011;59159;51.652;4.864;2022-11-18T04:29:27;4.70;;;0.80;;
71351;SDS011;59159;51.652;4.864;2022-11-18T04:31:53;4.43;;;0.90;;
71351;SDS011;59159;51.652;4.864;2022-11-18T04:34:19;4.07;;;0.80;;
71351;SDS011;59159;51.652;4.864;2022-11-18T04:36:45;4.07;;;1.03;;
71351;SDS011;59159;51.652;4.864;2022-11-18T04:39:11;4.10;;;0.80;;
71351;SDS011;59159;51.652;4.864;2022-11-18T04:41:37;4.18;;;0.98;;
71351;SDS011;59159;51.652;4.864;2022-11-18T04:46:47;7.87;;;0.80;;
71351;SDS011;59159;51.652;4.864;2022-11-18T04:49:13;3.80;;;0.90;;
71351;SDS011;59159;51.652;4.864;2022-11-18T04:51:40;3.60;;;0.98;;
71351;SDS011;59159;51.652;4.864;2022-11-18T04:54:06;4.17;;;0.90;;
71351;SDS011;59159;51.652;4.864;2022-11-18T04:56:32;3.65;;;0.90;;
71351;SDS011;59159;51.652;4.864;2022-11-18T04:58:58;5.45;;;1.00;;
71351;SDS011;59159;51.652;4.864;2022-11-18T05:01:26;4.40;;;0.90;;
71351;SDS011;59159;51.652;4.864;2022-11-18T05:03:53;4.18;;;0.90;;
71351;SDS011;59159;51.652;4.864;2022-11-18T05:06:19;3.67;;;1.20;;
71351;SDS011;59159;51.652;4.864;2022-11-18T05:08:45;3.13;;;0.90;;
71351;SDS011;59159;51.652;4.864;2022-11-18T05:11:11;5.27;;;0.83;;
71351;SDS011;59159;51.652;4.864;2022-11-18T05:13:56;3.63;;;0.80;;
71351;SDS011;59159;51.652;4.864;2022-11-18T05:16:22;4.65;;;0.80;;
71351;SDS011;59159;51.652;4.864;2022-11-18T05:18:48;3.23;;;0.77;;
71351;SDS011;59159;51.652;4.864;2022-11-18T05:21:14;3.50;;;0.70;;
71351;SDS011;59159;51.652;4.864;2022-11-18T05:23:40;3.42;;;0.82;;
71351;SDS011;59159;51.652;4.864;2022-11-18T05:26:07;4.60;;;0.70;;
71351;SDS011;59159;51.652;4.864;2022-11-18T05:28:33;2.80;;;0.98;;
71351;SDS011;59159;51.652;4.864;2022-11-18T05:30:59;3.38;;;1.00;;
71351;SDS011;59159;51.652;4.864;2022-11-18T05:33:25;3.35;;;0.90;;
71351;SDS011;59159;51.652;4.864;2022-11-18T05:35:51;4.47;;;1.10;;
71351;SDS011;59159;51.652;4.864;2022-11-18T05:38:17;2.22;;;0.80;;
71351;SDS011;59159;51.652;4.864;2022-11-18T05:40:43;3.13;;;0.80;;
71351;SDS011;59159;51.652;4.864;2022-11-18T05:43:09;3.73;;;0.90;;
71351;SDS011;59159;51.652;4.864;2022-11-18T05:45:35;3.65;;;0.70;;
71351;SDS011;59159;51.652;4.864;2022-11-18T05:48:01;3.00;;;0.80;;
71351;SDS011;59159;51.652;4.864;2022-11-18T05:50:31;3.93;;;0.90;;
71351;SDS011;59159;51.652;4.864;2022-11-18T05:52:58;3.65;;;0.80;;
71351;SDS011;59159;51.652;4.864;2022-11-18T05:55:32;4.60;;;0.80;;
71351;SDS011;59159;51.652;4.864;2022-11-18T05:57:59;4.50;;;1.00;;
71351;SDS011;59159;51.652;4.864;2022-11-18T06:00:25;3.10;;;0.80;;
71351;SDS011;59159;51.652;4.864;2022-11-18T06:02:51;3.45;;;0.80;;
71351;SDS011;59159;51.652;4.864;2022-11-18T06:05:18;5.75;;;1.08;;
71351;SDS011;59159;51.652;4.864;2022-11-18T06:07:45;2.73;;;0.70;;
71351;SDS011;59159;51.652;4.864;2022-11-18T06:10:14;10.10;;;0.98;;
71351;SDS011;59159;51.652;4.864;2022-11-18T06:12:44;3.88;;;0.90;;
71351;SDS011;59159;51.652;4.864;2022-11-18T06:15:14;3.30;;;0.90;;
71351;SDS011;59159;51.652;4.864;2022-11-18T06:17:42;4.38;;;1.38;;
71351;SDS011;59159;51.652;4.864;2022-11-18T06:20:10;2.97;;;0.95;;
71351;SDS011;59159;51.652;4.864;2022-11-18T06:22:36;3.45;;;0.80;;
71351;SDS011;59159;51.652;4.864;2022-11-18T06:25:03;5.57;;;1.20;;
71351;SDS011;59159;51.652;4.864;2022-11-18T06:27:30;3.55;;;0.80;;
71351;SDS011;59159;51.652;4.864;2022-11-18T06:29:56;2.92;;;0.90;;
71351;SDS011;59159;51.652;4.864;2022-11-18T06:32:22;4.00;;;1.10;;
71351;SDS011;59159;51.652;4.864;2022-11-18T06:34:48;3.65;;;0.90;;
71351;SDS011;59159;51.652;4.864;2022-11-18T06:37:14;5.93;;;0.85;;
71351;SDS011;59159;51.652;4.864;2022-11-18T06:39:41;4.70;;;1.10;;
71351;SDS011;59159;51.652;4.864;2022-11-18T06:42:07;3.53;;;1.00;;
71351;SDS011;59159;51.652;4.864;2022-11-18T06:44:33;4.38;;;0.90;;
71351;SDS011;59159;51.652;4.864;2022-11-18T06:46:59;4.47;;;0.90;;
71351;SDS011;59159;51.652;4.864;2022-11-18T06:49:26;3.67;;;0.73;;
71351;SDS011;59159;51.652;4.864;2022-11-18T06:51:53;6.05;;;1.00;;
71351;SDS011;59159;51.652;4.864;2022-11-18T06:54:19;4.30;;;1.10;;
71351;SDS011;59159;51.652;4.864;2022-11-18T06:56:45;4.33;;;0.80;;
71351;SDS011;59159;51.652;4.864;2022-11-18T06:59:11;3.88;;;0.88;;
71351;SDS011;59159;51.652;4.864;2022-11-18T07:01:38;4.05;;;1.02;;
71351;SDS011;59159;51.652;4.864;2022-11-18T07:04:05;2.43;;;0.70;;
71351;SDS011;59159;51.652;4.864;2022-11-18T07:06:31;2.80;;;0.73;;
71351;SDS011;59159;51.652;4.864;2022-11-18T07:08:58;5.15;;;0.90;;
71351;SDS011;59159;51.652;4.864;2022-11-18T07:11:27;3.55;;;1.10;;
71351;SDS011;59159;51.652;4.864;2022-11-18T07:13:53;3.77;;;0.90;;
71351;SDS011;59159;51.652;4.864;2022-11-18T07:16:20;3.38;;;0.90;;
71351;SDS011;59159;51.652;4.864;2022-11-18T07:18:47;5.28;;;1.20;;
71351;SDS011;59159;51.652;4.864;2022-11-18T07:21:17;2.93;;;0.77;;
71351;SDS011;59159;51.652;4.864;2022-11-18T07:23:43;2.72;;;0.70;;
71351;SDS011;59159;51.652;4.864;2022-11-18T07:26:10;3.38;;;0.70;;
71351;SDS011;59159;51.652;4.864;2022-11-18T07:28:36;3.13;;;0.70;;
71351;SDS011;59159;51.652;4.864;2022-11-18T07:31:09;3.40;;;0.80;;
71351;SDS011;59159;51.652;4.864;2022-11-18T07:33:35;3.72;;;0.80;;
71351;SDS011;59159;51.652;4.864;2022-11-18T07:36:03;3.28;;;0.80;;
71351;SDS011;59159;51.652;4.864;2022-11-18T07:38:29;4.07;;;0.87;;
71351;SDS011;59159;51.652;4.864;2022-11-18T07:41:02;4.07;;;0.80;;
71351;SDS011;59159;51.652;4.864;2022-11-18T07:43:28;5.20;;;1.83;;
71351;SDS011;59159;51.652;4.864;2022-11-18T07:45:54;3.03;;;0.83;;
71351;SDS011;59159;51.652;4.864;2022-11-18T07:48:20;4.57;;;1.23;;
71351;SDS011;59159;51.652;4.864;2022-11-18T07:50:46;4.70;;;2.00;;
71351;SDS011;59159;51.652;4.864;2022-11-18T07:53:12;4.80;;;0.97;;
71351;SDS011;59159;51.652;4.864;2022-11-18T07:55:37;3.03;;;0.77;;
71351;SDS011;59159;51.652;4.864;2022-11-18T07:58:03;4.05;;;1.10;;
71351;SDS011;59159;51.652;4.864;2022-11-18T08:00:29;4.53;;;1.08;;
71351;SDS011;59159;51.652;4.864;2022-11-18T08:02:55;4.27;;;0.80;;
71351;SDS011;59159;51.652;4.864;2022-11-18T08:05:21;3.97;;;0.80;;
71351;SDS011;59159;51.652;4.864;2022-11-18T08:07:47;4.53;;;0.90;;
71351;SDS011;59159;51.652;4.864;2022-11-18T08:10:13;3.33;;;0.80;;
71351;SDS011;59159;51.652;4.864;2022-11-18T08:12:39;3.13;;;0.90;;
71351;SDS011;59159;51.652;4.864;2022-11-18T08:15:05;4.63;;;1.00;;
71351;SDS011;59159;51.652;4.864;2022-11-18T08:17:32;4.60;;;1.00;;
71351;SDS011;59159;51.652;4.864;2022-11-18T08:19:58;4.60;;;0.90;;
71351;SDS011;59159;51.652;4.864;2022-11-18T08:22:24;4.03;;;1.00;;
71351;SDS011;59159;51.652;4.864;2022-11-18T08:24:50;3.30;;;0.90;;
71351;SDS011;59159;51.652;4.864;2022-11-18T08:27:17;3.73;;;0.90;;
71351;SDS011;59159;51.652;4.864;2022-11-18T08:29:43;3.90;;;0.77;;
71351;SDS011;59159;51.652;4.864;2022-11-18T08:32:09;3.92;;;1.00;;
71351;SDS011;59159;51.652;4.864;2022-11-18T08:34:35;3.57;;;0.90;;
71351;SDS011;59159;51.652;4.864;2022-11-18T08:37:01;3.08;;;0.80;;
71351;SDS011;59159;51.652;4.864;2022-11-18T08:39:27;3.05;;;0.80;;
71351;SDS011;59159;51.652;4.864;2022-11-18T08:41:53;4.10;;;0.97;;
71351;SDS011;59159;51.652;4.864;2022-11-18T08:44:19;2.90;;;0.88;;
71351;SDS011;59159;51.652;4.864;2022-11-18T08:46:45;5.32;;;1.23;;
71351;SDS011;59159;51.652;4.864;2022-11-18T08:49:11;2.47;;;0.80;;
71351;SDS011;59159;51.652;4.864;2022-11-18T08:51:37;3.90;;;0.73;;
71351;SDS011;59159;51.652;4.864;2022-11-18T08:54:03;3.47;;;0.90;;
71351;SDS011;59159;51.652;4.864;2022-11-18T08:56:29;4.78;;;0.80;;
71351;SDS011;59159;51.652;4.864;2022-11-18T08:58:55;3.87;;;0.80;;
71351;SDS011;59159;51.652;4.864;2022-11-18T09:01:21;6.38;;;1.05;;
71351;SDS011;59159;51.652;4.864;2022-11-18T09:03:47;3.35;;;0.80;;
71351;SDS011;59159;51.652;4.864;2022-11-18T09:06:20;5.17;;;1.50;;
71351;SDS011;59159;51.652;4.864;2022-11-18T09:08:48;3.22;;;0.77;;
71351;SDS011;59159;51.652;4.864;2022-11-18T09:11:16;3.88;;;0.63;;
71351;SDS011;59159;51.652;4.864;2022-11-18T09:13:42;3.33;;;0.80;;
71351;SDS011;59159;51.652;4.864;2022-11-18T09:16:09;3.37;;;0.73;;
71351;SDS011;59159;51.652;4.864;2022-11-18T09:18:35;5.00;;;0.93;;
71351;SDS011;59159;51.652;4.864;2022-11-18T09:21:03;3.83;;;0.80;;
71351;SDS011;59159;51.652;4.864;2022-11-18T09:23:33;3.03;;;0.80;;
71351;SDS011;59159;51.652;4.864;2022-11-18T09:26:03;4.22;;;0.60;;
71351;SDS011;59159;51.652;4.864;2022-11-18T09:28:29;2.80;;;0.65;;
71351;SDS011;59159;51.652;4.864;2022-11-18T09:30:55;3.53;;;0.90;;
71351;SDS011;59159;51.652;4.864;2022-11-18T09:33:21;2.05;;;0.60;;
71351;SDS011;59159;51.652;4.864;2022-11-18T09:35:48;3.42;;;0.88;;
71351;SDS011;59159;51.652;4.864;2022-11-18T09:38:14;3.85;;;1.00;;
71351;SDS011;59159;51.652;4.864;2022-11-18T09:40:45;3.37;;;0.60;;
71351;SDS011;59159;51.652;4.864;2022-11-18T09:43:18;4.03;;;0.90;;
71351;SDS011;59159;51.652;4.864;2022-11-18T09:45:46;3.70;;;0.70;;
71351;SDS011;59159;51.652;4.864;2022-11-18T09:48:17;3.10;;;0.80;;
71351;SDS011;59159;51.652;4.864;2022-11-18T09:50:44;4.75;;;0.73;;
71351;SDS011;59159;51.652;4.864;2022-11-18T09:53:17;2.65;;;0.70;;
71351;SDS011;59159;51.652;4.864;2022-11-18T09:55:43;5.00;;;0.90;;
71351;SDS011;59159;51.652;4.864;2022-11-18T09:58:54;3.53;;;0.98;;
71351;SDS011;59159;51.652;4.864;2022-11-18T10:00:55;3.05;;;0.80;;
71351;SDS011;59159;51.652;4.864;2022-11-18T10:03:28;3.00;;;0.80;;
71351;SDS011;59159;51.652;4.864;2022-11-18T10:11:12;2.70;;;0.75;;
71351;SDS011;59159;51.652;4.864;2022-11-18T10:13:43;3.87;;;0.80;;
71351;SDS011;59159;51.652;4.864;2022-11-18T10:16:18;3.42;;;0.70;;
71351;SDS011;59159;51.652;4.864;2022-11-18T10:21:36;6.90;;;1.07;;
71351;SDS011;59159;51.652;4.864;2022-11-18T10:24:09;2.97;;;0.50;;
71351;SDS011;59159;51.652;4.864;2022-11-18T10:26:38;2.70;;;0.60;;
71351;SDS011;59159;51.652;4.864;2022-11-18T10:29:05;4.38;;;1.90;;
71351;SDS011;59159;51.652;4.864;2022-11-18T10:31:55;3.17;;;0.90;;
71351;SDS011;59159;51.652;4.864;2022-11-18T10:34:23;4.63;;;0.90;;
71351;SDS011;59159;51.652;4.864;2022-11-18T10:37:06;4.13;;;0.90;;
71351;SDS011;59159;51.652;4.864;2022-11-18T10:39:32;5.37;;;0.80;;
71351;SDS011;59159;51.652;4.864;2022-11-18T10:42:04;3.20;;;0.80;;
71351;SDS011;59159;51.652;4.864;2022-11-18T10:44:38;3.72;;;0.70;;
71351;SDS011;59159;51.652;4.864;2022-11-18T10:47:14;3.20;;;0.80;;
71351;SDS011;59159;51.652;4.864;2022-11-18T10:49:40;4.93;;;0.80;;
71351;SDS011;59159;51.652;4.864;2022-11-18T10:52:07;2.95;;;0.90;;
71351;SDS011;59159;51.652;4.864;2022-11-18T10:54:35;2.72;;;0.85;;
71351;SDS011;59159;51.652;4.864;2022-11-18T10:57:05;4.73;;;1.23;;
71351;SDS011;59159;51.652;4.864;2022-11-18T10:59:32;3.03;;;1.00;;
71351;SDS011;59159;51.652;4.864;2022-11-18T11:02:19;3.58;;;0.90;;
71351;SDS011;59159;51.652;4.864;2022-11-18T11:04:46;4.03;;;1.00;;
71351;SDS011;59159;51.652;4.864;2022-11-18T11:07:13;4.28;;;1.00;;
71351;SDS011;59159;51.652;4.864;2022-11-18T11:09:39;3.90;;;1.00;;
71351;SDS011;59159;51.652;4.864;2022-11-18T11:12:15;4.33;;;0.80;;
71351;SDS011;59159;51.652;4.864;2022-11-18T11:22:07;2.20;;;0.60;;
71351;SDS011;59159;51.652;4.864;2022-11-18T11:24:33;3.58;;;0.98;;
71351;SDS011;59159;51.652;4.864;2022-11-18T11:32:29;4.32;;;1.17;;
71351;SDS011;59159;51.652;4.864;2022-11-18T11:50:50;5.45;;;1.40;;
71351;SDS011;59159;51.652;4.864;2022-11-18T11:55:58;5.07;;;1.20;;
71351;SDS011;59159;51.652;4.864;2022-11-18T12:01:04;2.83;;;0.68;;
71351;SDS011;59159;51.652;4.864;2022-11-18T12:06:06;4.43;;;1.00;;
71351;SDS011;59159;51.652;4.864;2022-11-18T12:08:32;4.72;;;1.25;;
71351;SDS011;59159;51.652;4.864;2022-11-18T12:11:12;5.25;;;1.23;;
71351;SDS011;59159;51.652;4.864;2022-11-18T12:13:52;4.73;;;1.10;;
71351;SDS011;59159;51.652;4.864;2022-11-18T12:18:57;4.10;;;1.10;;
71351;SDS011;59159;51.652;4.864;2022-11-18T12:26:51;7.68;;;1.83;;
71351;SDS011;59159;51.652;4.864;2022-11-18T12:31:44;5.50;;;1.25;;
71351;SDS011;59159;51.652;4.864;2022-11-18T12:34:17;6.25;;;1.60;;
71351;SDS011;59159;51.652;4.864;2022-11-18T12:36:44;4.72;;;1.35;;
71351;SDS011;59159;51.652;4.864;2022-11-18T12:44:30;4.65;;;1.23;;
71351;SDS011;59159;51.652;4.864;2022-11-18T12:46:57;4.40;;;1.30;;
71351;SDS011;59159;51.652;4.864;2022-11-18T12:51:49;5.72;;;1.20;;
71351;SDS011;59159;51.652;4.864;2022-11-18T12:56:47;3.75;;;1.05;;
71351;SDS011;59159;51.652;4.864;2022-11-18T12:59:15;4.38;;;1.10;;
71351;SDS011;59159;51.652;4.864;2022-11-18T13:01:40;5.13;;;1.42;;
71351;SDS011;59159;51.652;4.864;2022-11-18T13:06:36;4.95;;;1.30;;
71351;SDS011;59159;51.652;4.864;2022-11-18T13:09:03;5.50;;;1.30;;
71351;SDS011;59159;51.652;4.864;2022-11-18T13:11:31;6.50;;;1.37;;
71351;SDS011;59159;51.652;4.864;2022-11-18T13:14:20;5.68;;;1.30;;
71351;SDS011;59159;51.652;4.864;2022-11-18T13:17:22;4.13;;;1.40;;
71351;SDS011;59159;51.652;4.864;2022-11-18T13:20:18;4.33;;;1.10;;
71351;SDS011;59159;51.652;4.864;2022-11-18T13:22:50;4.47;;;1.30;;
71351;SDS011;59159;51.652;4.864;2022-11-18T13:25:35;4.63;;;1.20;;
71351;SDS011;59159;51.652;4.864;2022-11-18T13:30:33;6.70;;;1.40;;
71351;SDS011;59159;51.652;4.864;2022-11-18T13:33:01;5.68;;;1.48;;
71351;SDS011;59159;51.652;4.864;2022-11-18T13:35:28;5.28;;;1.33;;
71351;SDS011;59159;51.652;4.864;2022-11-18T13:37:57;6.13;;;1.30;;
71351;SDS011;59159;51.652;4.864;2022-11-18T13:40:28;5.72;;;1.40;;
71351;SDS011;59159;51.652;4.864;2022-11-18T13:42:54;4.13;;;1.10;;
71351;SDS011;59159;51.652;4.864;2022-11-18T13:45:22;6.47;;;1.27;;
71351;SDS011;59159;51.652;4.864;2022-11-18T13:47:51;4.13;;;1.20;;
71351;SDS011;59159;51.652;4.864;2022-11-18T13:55:39;3.97;;;0.87;;
71351;SDS011;59159;51.652;4.864;2022-11-18T14:00:53;6.78;;;1.20;;
71351;SDS011;59159;51.652;4.864;2022-11-18T14:05:52;4.05;;;0.98;;
71351;SDS011;59159;51.652;4.864;2022-11-18T14:08:26;4.35;;;1.13;;
71351;SDS011;59159;51.652;4.864;2022-11-18T14:10:52;3.80;;;1.30;;
71351;SDS011;59159;51.652;4.864;2022-11-18T14:13:23;4.65;;;1.10;;
71351;SDS011;59159;51.652;4.864;2022-11-18T14:15:51;4.75;;;1.33;;
71351;SDS011;59159;51.652;4.864;2022-11-18T14:18:18;5.25;;;1.40;;
71351;SDS011;59159;51.652;4.864;2022-11-18T14:20:51;5.33;;;1.47;;
71351;SDS011;59159;51.652;4.864;2022-11-18T14:23:17;4.65;;;1.25;;
71351;SDS011;59159;51.652;4.864;2022-11-18T14:25:45;6.18;;;1.35;;
71351;SDS011;59159;51.652;4.864;2022-11-18T14:28:12;4.20;;;1.30;;
71351;SDS011;59159;51.652;4.864;2022-11-18T14:30:59;5.97;;;2.15;;
71351;SDS011;59159;51.652;4.864;2022-11-18T14:33:37;5.18;;;1.40;;
71351;SDS011;59159;51.652;4.864;2022-11-18T14:36:10;6.73;;;1.70;;
71351;SDS011;59159;51.652;4.864;2022-11-18T14:41:07;5.88;;;1.80;;
71351;SDS011;59159;51.652;4.864;2022-11-18T14:43:33;5.50;;;1.48;;
71351;SDS011;59159;51.652;4.864;2022-11-18T14:46:01;6.50;;;1.60;;
71351;SDS011;59159;51.652;4.864;2022-11-18T14:48:27;4.35;;;1.25;;
71351;SDS011;59159;51.652;4.864;2022-11-18T14:50:57;7.30;;;2.17;;
71351;SDS011;59159;51.652;4.864;2022-11-18T14:53:23;4.50;;;1.10;;
71351;SDS011;59159;51.652;4.864;2022-11-18T14:55:50;7.07;;;1.40;;
71351;SDS011;59159;51.652;4.864;2022-11-18T14:58:17;4.95;;;1.40;;
71351;SDS011;59159;51.652;4.864;2022-11-18T15:00:44;6.73;;;2.13;;
71351;SDS011;59159;51.652;4.864;2022-11-18T15:03:11;4.50;;;1.33;;
71351;SDS011;59159;51.652;4.864;2022-11-18T15:05:37;4.90;;;1.35;;
71351;SDS011;59159;51.652;4.864;2022-11-18T15:08:03;5.60;;;1.60;;
71351;SDS011;59159;51.652;4.864;2022-11-18T15:10:30;4.47;;;1.20;;
71351;SDS011;59159;51.652;4.864;2022-11-18T15:12:55;5.20;;;1.58;;
71351;SDS011;59159;51.652;4.864;2022-11-18T15:15:22;5.45;;;1.60;;
71351;SDS011;59159;51.652;4.864;2022-11-18T15:17:48;6.00;;;1.57;;
71351;SDS011;59159;51.652;4.864;2022-11-18T15:20:15;4.40;;;1.30;;
71351;SDS011;59159;51.652;4.864;2022-11-18T15:22:41;6.60;;;1.52;;
71351;SDS011;59159;51.652;4.864;2022-11-18T15:25:07;4.70;;;1.30;;
71351;SDS011;59159;51.652;4.864;2022-11-18T15:27:33;4.95;;;1.40;;
71351;SDS011;59159;51.652;4.864;2022-11-18T15:29:59;4.28;;;1.52;;
71351;SDS011;59159;51.652;4.864;2022-11-18T15:32:26;5.38;;;1.70;;
71351;SDS011;59159;51.652;4.864;2022-11-18T15:34:51;6.57;;;1.77;;
71351;SDS011;59159;51.652;4.864;2022-11-18T15:37:17;5.68;;;1.77;;
71351;SDS011;59159;51.652;4.864;2022-11-18T15:39:43;5.85;;;1.50;;
71351;SDS011;59159;51.652;4.864;2022-11-18T15:42:10;5.73;;;1.47;;
71351;SDS011;59159;51.652;4.864;2022-11-18T15:44:36;6.20;;;2.00;;
71351;SDS011;59159;51.652;4.864;2022-11-18T15:47:02;5.85;;;1.40;;
71351;SDS011;59159;51.652;4.864;2022-11-18T15:49:28;5.87;;;1.80;;
71351;SDS011;59159;51.652;4.864;2022-11-18T15:51:54;5.43;;;1.83;;
71351;SDS011;59159;51.652;4.864;2022-11-18T15:54:20;6.45;;;1.60;;
71351;SDS011;59159;51.652;4.864;2022-11-18T15:56:46;7.10;;;1.75;;
71351;SDS011;59159;51.652;4.864;2022-11-18T15:59:13;5.40;;;2.07;;
71351;SDS011;59159;51.652;4.864;2022-11-18T16:01:43;5.57;;;1.55;;
71351;SDS011;59159;51.652;4.864;2022-11-18T16:04:10;5.57;;;1.85;;
71351;SDS011;59159;51.652;4.864;2022-11-18T16:06:36;7.63;;;2.03;;
71351;SDS011;59159;51.652;4.864;2022-11-18T16:09:03;6.55;;;1.90;;
71351;SDS011;59159;51.652;4.864;2022-11-18T16:11:29;8.45;;;1.52;;
71351;SDS011;59159;51.652;4.864;2022-11-18T16:14:14;6.63;;;1.67;;
71351;SDS011;59159;51.652;4.864;2022-11-18T16:16:41;6.13;;;1.50;;
71351;SDS011;59159;51.652;4.864;2022-11-18T16:19:08;4.85;;;1.60;;
71351;SDS011;59159;51.652;4.864;2022-11-18T16:21:36;5.68;;;1.50;;
71351;SDS011;59159;51.652;4.864;2022-11-18T16:24:03;6.17;;;1.77;;
71351;SDS011;59159;51.652;4.864;2022-11-18T16:26:29;8.55;;;2.00;;
71351;SDS011;59159;51.652;4.864;2022-11-18T16:28:56;7.97;;;3.00;;
71351;SDS011;59159;51.652;4.864;2022-11-18T16:31:22;10.00;;;5.93;;
71351;SDS011;59159;51.652;4.864;2022-11-18T16:34:08;8.20;;;4.90;;
71351;SDS011;59159;51.652;4.864;2022-11-18T16:36:34;8.50;;;4.55;;
71351;SDS011;59159;51.652;4.864;2022-11-18T16:42:00;7.93;;;3.47;;
71351;SDS011;59159;51.652;4.864;2022-11-18T16:44:26;9.93;;;4.75;;
71351;SDS011;59159;51.652;4.864;2022-11-18T16:46:53;8.88;;;3.47;;
71351;SDS011;59159;51.652;4.864;2022-11-18T16:49:20;8.57;;;3.83;;
71351;SDS011;59159;51.652;4.864;2022-11-18T16:51:48;8.80;;;4.50;;